Aérodrome :
LOGIN :

S'inscrire | Disclaimer

   EN    FR    IT 

 










Légende :    VFR   VFR Marginal   IFR   IFR Intensif   IFR Très Intensif
Visi : 
Plafond : 
>= 8 km
>= 3000ft
5 à 8 km
1000 à 3000 ft
1500m à 5 km
500 à 1000 ft
800 à 1500m
200 à 500 ft
< 800m
< 200 ft
Symboles :   Orages  Brouillard  Fortes neiges  Fortes précipitations  Vent > 20 kt
SIGMETs :   Divers  Orages  Givrage  Turbulence  Onde Orograph.  Cendres Volcan.






- Altitude de l'aérodrome : 146 ft
- Code IATA : RKE


EKRK - Roskilde Tune

DERNIER METAR :
  • 221620Z AUTO 26022G35KT 9999 FEW100/// 05/02 Q1000

METARs EXPIRÉS :
  • 221550Z AUTO 26019G30KT 9999 FEW027/// SCT083/// BKN130/// BKN210/// 05/02 Q0999 RESHRA
  • 221520Z AUTO 27028G44KT 240V300 4700 RA BKN019/// BKN089/// 04/02 Q0999
  • 221450Z AUTO 26020G31KT 9999 BKN029/// 08/03 Q0998
  • 221420Z AUTO 26024G38KT 9999 SCT028/// BKN110/// 08/03 Q0998
  • 221350Z AUTO 26022G33KT 9999 FEW028/// SCT120/// 08/04 Q0998

TAF TAF EKRK
Valide du 22 à 15h jusqu'au 23 à 00h UTC


221401Z 2215/2224 26023KT 9999 BKN020
TEMPO 2215/2222 26025G38KT 4000 SHRA SCT020CB



MET'MAP, la Météo Aéronautique d'un coup d'oeil ! - Copyright ORBIFLY Décembre 2007 - Disclaimer

ORBIFLY MET'MAP TEAM :

Programmation & Développement : Alexandra Zaïnal
Sur une idée originale de : Baudouin d'Aumeries
Assistance à la programmation : Marc-Olivier Méhu
Soutien technique & logistique : Manuel Goepfert

Contact : metmap@orbifly.com




SOURCES & CREDITS :

   NOAA